createdAt,value
2019-04-29T00:01:42.237Z,14.78
2019-04-29T00:04:14.033Z,14.65
2019-04-29T00:06:45.657Z,14.59
2019-04-29T00:09:19.497Z,14.54
2019-04-29T00:11:51.032Z,14.47
2019-04-29T00:14:22.551Z,14.40
2019-04-29T00:16:58.855Z,14.34
2019-04-29T00:19:32.186Z,14.23
2019-04-29T00:22:03.960Z,14.29
2019-04-29T00:24:35.310Z,14.24
2019-04-29T00:27:09.180Z,14.12
2019-04-29T00:29:40.614Z,14.04
2019-04-29T00:32:12.621Z,14.05
2019-04-29T00:34:44.042Z,14.03
2019-04-29T00:37:32.873Z,14.04
2019-04-29T00:40:23.462Z,13.97
2019-04-29T00:43:13.811Z,13.93
2019-04-29T00:45:50.483Z,13.99
2019-04-29T00:48:30.083Z,14.12
2019-04-29T00:51:04.543Z,14.08
2019-04-29T00:53:36.305Z,14.10
2019-04-29T00:56:12.813Z,14.05
2019-04-29T00:58:45.259Z,14.10
2019-04-29T01:01:18.462Z,14.12
2019-04-29T01:03:50.405Z,14.09
2019-04-29T01:06:22.066Z,14.00
2019-04-29T01:08:53.831Z,13.95
2019-04-29T01:11:25.681Z,13.96
2019-04-29T01:13:57.313Z,13.90
2019-04-29T01:16:28.932Z,13.92
2019-04-29T01:19:03.777Z,13.90
2019-04-29T01:21:34.459Z,13.96
2019-04-29T01:24:06.171Z,13.99
2019-04-29T01:26:58.072Z,13.88
2019-04-29T01:29:39.201Z,13.89
2019-04-29T01:32:11.728Z,13.84
2019-04-29T01:34:44.952Z,13.85
2019-04-29T01:37:16.658Z,13.73
2019-04-29T01:39:55.985Z,13.77
2019-04-29T01:42:32.465Z,13.66
2019-04-29T01:45:04.332Z,13.62
2019-04-29T01:47:35.654Z,13.59
2019-04-29T01:50:07.647Z,13.60
2019-04-29T01:52:39.203Z,13.59
2019-04-29T01:55:11.038Z,13.59
2019-04-29T01:57:42.719Z,13.60
2019-04-29T02:00:15.708Z,13.53
2019-04-29T02:02:47.362Z,13.52
2019-04-29T02:05:19.036Z,13.47
2019-04-29T02:07:50.686Z,13.46
2019-04-29T02:10:24.028Z,13.48
2019-04-29T02:12:55.950Z,13.46
2019-04-29T02:15:27.686Z,13.40
2019-04-29T02:17:59.317Z,13.42
2019-04-29T02:20:30.995Z,13.08
2019-04-29T02:23:04.260Z,13.40
2019-04-29T02:25:40.587Z,13.36
2019-04-29T02:28:12.125Z,13.31
2019-04-29T02:30:46.934Z,13.25
2019-04-29T02:33:18.404Z,13.26
2019-04-29T02:35:51.889Z,13.26
2019-04-29T02:38:38.414Z,13.27
2019-04-29T02:41:11.903Z,13.25
2019-04-29T02:43:47.851Z,13.26
2019-04-29T02:46:19.649Z,13.30
2019-04-29T02:48:51.394Z,13.31
2019-04-29T02:51:41.011Z,13.25
2019-04-29T02:54:13.152Z,13.20
2019-04-29T02:56:46.263Z,13.14
2019-04-29T02:59:29.388Z,13.19
2019-04-29T03:02:15.483Z,13.16
2019-04-29T03:04:52.247Z,13.06
2019-04-29T03:07:24.343Z,13.07
2019-04-29T03:09:56.471Z,13.03
2019-04-29T03:12:28.113Z,13.05
2019-04-29T03:14:59.974Z,13.15
2019-04-29T03:17:32.192Z,13.08
2019-04-29T03:20:12.386Z,13.08
2019-04-29T03:22:46.031Z,13.09
2019-04-29T03:25:17.555Z,13.19
2019-04-29T03:27:50.359Z,13.22
2019-04-29T03:30:22.217Z,13.33
2019-04-29T03:32:53.923Z,13.33
2019-04-29T03:35:26.686Z,13.42
2019-04-29T03:37:59.262Z,13.42
2019-04-29T03:40:30.811Z,13.41
2019-04-29T03:43:02.842Z,13.41
2019-04-29T03:45:34.501Z,13.40
2019-04-29T03:48:06.443Z,13.50
2019-04-29T03:50:38.362Z,13.58
2019-04-29T03:53:09.846Z,13.57
2019-04-29T03:55:42.874Z,13.59
2019-04-29T03:58:14.593Z,13.69
2019-04-29T04:00:47.955Z,13.58
2019-04-29T04:03:24.096Z,13.55
2019-04-29T04:06:01.152Z,13.72
2019-04-29T04:08:34.803Z,13.77
2019-04-29T04:11:06.637Z,13.92
2019-04-29T04:13:38.121Z,14.08
2019-04-29T04:16:11.706Z,14.12
2019-04-29T04:18:43.553Z,14.26
2019-04-29T04:21:17.349Z,14.32
2019-04-29T04:23:49.087Z,14.35
2019-04-29T04:26:21.879Z,14.34
2019-04-29T04:28:53.813Z,14.51
2019-04-29T04:31:25.550Z,14.62
2019-04-29T04:33:59.020Z,14.72
2019-04-29T04:36:30.852Z,14.86
2019-04-29T04:39:02.991Z,14.96
2019-04-29T04:41:36.510Z,15.01
2019-04-29T04:44:08.428Z,15.20
2019-04-29T04:46:40.220Z,15.46
2019-04-29T04:49:15.605Z,15.61
2019-04-29T04:51:45.188Z,15.99
2019-04-29T04:54:17.190Z,15.99
2019-04-29T04:56:49.018Z,15.89
2019-04-29T04:59:20.909Z,16.03
2019-04-29T05:01:52.593Z,16.26
2019-04-29T05:04:25.571Z,16.34
2019-04-29T05:06:58.225Z,16.39
2019-04-29T05:09:30.159Z,16.59
2019-04-29T05:12:01.853Z,16.48
2019-04-29T05:14:33.465Z,16.58
2019-04-29T05:17:05.308Z,16.41
2019-04-29T05:19:38.151Z,16.50
2019-04-29T05:22:10.435Z,16.60
2019-04-29T05:24:42.107Z,16.92
2019-04-29T05:27:14.057Z,17.06
2019-04-29T05:29:45.815Z,17.30
2019-04-29T05:32:17.714Z,17.41
2019-04-29T05:34:51.255Z,17.45
2019-04-29T05:37:25.718Z,17.59
2019-04-29T05:39:58.094Z,17.28
2019-04-29T05:42:30.245Z,17.36
2019-04-29T05:45:09.883Z,17.20
2019-04-29T05:47:44.576Z,17.32
2019-04-29T05:50:35.322Z,17.48
2019-04-29T05:53:11.439Z,17.53
2019-04-29T05:55:43.341Z,17.62
2019-04-29T05:58:16.154Z,17.97
2019-04-29T06:01:01.975Z,18.14
2019-04-29T06:03:38.036Z,17.92
2019-04-29T06:06:12.205Z,18.22
2019-04-29T06:08:42.953Z,18.53
2019-04-29T06:11:17.686Z,18.75
2019-04-29T06:13:51.183Z,18.73
2019-04-29T06:16:23.215Z,18.69
2019-04-29T06:19:00.409Z,18.59
2019-04-29T06:21:28.794Z,18.24
2019-04-29T06:24:04.475Z,18.50
2019-04-29T06:26:34.145Z,18.55
2019-04-29T06:29:06.245Z,18.00
2019-04-29T06:31:38.582Z,18.16
2019-04-29T06:34:10.662Z,18.12
2019-04-29T06:36:43.557Z,17.85
2019-04-29T06:39:15.779Z,18.36
2019-04-29T06:41:47.688Z,18.77
2019-04-29T06:44:19.432Z,18.78
2019-04-29T06:46:54.516Z,19.05
2019-04-29T06:49:25.114Z,18.87
2019-04-29T06:51:58.492Z,18.61
2019-04-29T06:54:30.353Z,18.73
2019-04-29T06:57:02.255Z,18.92
2019-04-29T06:59:34.207Z,18.98
2019-04-29T07:02:09.353Z,18.64
2019-04-29T07:04:41.610Z,18.44
2019-04-29T07:07:14.872Z,18.20
2019-04-29T07:09:46.833Z,18.11
2019-04-29T07:12:19.550Z,17.83
2019-04-29T07:14:51.373Z,18.18
2019-04-29T07:17:24.986Z,18.21
2019-04-29T07:20:02.078Z,18.37
2019-04-29T07:22:43.255Z,18.36
2019-04-29T07:25:15.920Z,18.64
2019-04-29T07:27:49.176Z,18.90
2019-04-29T07:30:21.256Z,18.44
2019-04-29T07:32:54.103Z,18.22
2019-04-29T07:35:26.050Z,18.27
2019-04-29T07:37:58.027Z,18.15
2019-04-29T07:40:30.174Z,17.94
2019-04-29T07:43:02.853Z,18.07
2019-04-29T07:45:44.003Z,18.04
2019-04-29T07:48:10.584Z,18.03
2019-04-29T07:50:45.513Z,18.21
2019-04-29T07:53:20.942Z,18.01
2019-04-29T07:55:52.440Z,17.89
2019-04-29T07:58:27.389Z,17.96
2019-04-29T08:00:57.975Z,17.59
2019-04-29T08:03:31.870Z,18.09
2019-04-29T08:06:04.908Z,18.36
2019-04-29T08:08:38.830Z,18.69
2019-04-29T08:11:12.747Z,18.85
2019-04-29T08:13:45.781Z,19.16
2019-04-29T08:16:19.238Z,19.35
2019-04-29T08:18:53.604Z,19.39
2019-04-29T08:21:24.586Z,19.41
2019-04-29T08:23:58.600Z,19.14
2019-04-29T08:26:33.581Z,19.14
2019-04-29T08:29:04.641Z,19.22
2019-04-29T08:31:38.926Z,19.31
2019-04-29T08:34:12.285Z,19.74
2019-04-29T08:36:50.513Z,19.98
2019-04-29T08:39:25.199Z,20.32
2019-04-29T08:42:03.740Z,19.99
2019-04-29T08:44:43.119Z,19.69
2019-04-29T08:47:23.678Z,19.83
2019-04-29T08:49:54.532Z,19.80
2019-04-29T08:52:26.691Z,19.52
2019-04-29T08:55:04.721Z,19.38
2019-04-29T08:57:45.436Z,19.15
2019-04-29T09:00:18.862Z,18.96
2019-04-29T09:02:50.537Z,18.92
2019-04-29T09:05:24.017Z,18.91
2019-04-29T09:07:57.375Z,18.78
2019-04-29T09:10:33.042Z,18.78
2019-04-29T09:13:05.341Z,18.70
2019-04-29T09:15:37.124Z,18.57
2019-04-29T09:18:11.298Z,18.52
2019-04-29T09:20:43.200Z,18.63
2019-04-29T09:23:19.821Z,18.54
2019-04-29T09:26:02.552Z,18.45
2019-04-29T09:28:29.873Z,18.56
2019-04-29T09:31:01.883Z,18.72
2019-04-29T09:33:35.759Z,18.62
2019-04-29T09:36:09.668Z,18.66
2019-04-29T09:38:41.414Z,18.76
2019-04-29T09:41:35.035Z,18.68
2019-04-29T09:44:09.331Z,18.76
2019-04-29T09:46:40.941Z,18.66
2019-04-29T09:49:14.653Z,18.41
2019-04-29T09:51:47.118Z,18.46
2019-04-29T09:54:20.203Z,18.33
2019-04-29T09:56:52.066Z,18.12
2019-04-29T09:59:32.295Z,17.93
2019-04-29T10:02:12.927Z,17.84
2019-04-29T10:04:56.823Z,17.72
2019-04-29T10:07:26.957Z,17.50
2019-04-29T10:10:06.941Z,17.23
2019-04-29T10:12:38.905Z,17.34
2019-04-29T10:15:39.875Z,17.25
2019-04-29T10:21:05.812Z,16.86
2019-04-29T10:23:54.351Z,16.97
2019-04-29T10:26:29.069Z,16.99
2019-04-29T10:29:03.545Z,16.77
2019-04-29T10:31:38.236Z,16.60
2019-04-29T10:34:13.839Z,16.69
2019-04-29T10:36:52.214Z,16.75
2019-04-29T10:39:42.416Z,16.86
2019-04-29T10:42:42.102Z,16.94
2019-04-29T10:45:36.187Z,16.75
2019-04-29T10:48:19.083Z,16.59
2019-04-29T10:50:54.026Z,16.64
2019-04-29T10:53:28.805Z,16.62
2019-04-29T10:56:05.630Z,16.56
2019-04-29T10:58:45.423Z,16.56
2019-04-29T11:02:09.136Z,16.81
2019-04-29T11:04:47.019Z,16.82
2019-04-29T11:07:39.298Z,17.08
2019-04-29T11:10:25.345Z,16.92
2019-04-29T11:13:04.421Z,16.89
2019-04-29T11:15:49.522Z,16.93
2019-04-29T11:18:24.903Z,17.01
2019-04-29T11:21:01.096Z,17.02
2019-04-29T11:23:43.569Z,17.01
2019-04-29T11:26:37.527Z,16.89
2019-04-29T11:29:29.162Z,16.96
2019-04-29T11:32:04.874Z,16.74
2019-04-29T11:34:48.383Z,16.66
2019-04-29T11:37:24.243Z,16.52
2019-04-29T11:39:58.707Z,16.33
2019-04-29T11:42:36.783Z,16.23
2019-04-29T11:45:15.316Z,16.31
2019-04-29T11:47:50.858Z,16.30
2019-04-29T11:50:45.250Z,16.24
2019-04-29T11:53:18.019Z,16.13
2019-04-29T11:55:52.517Z,16.01
2019-04-29T11:58:30.325Z,16.16
2019-04-29T12:01:37.934Z,16.08
2019-04-29T12:04:16.549Z,16.01
2019-04-29T12:06:51.360Z,15.82
2019-04-29T12:09:25.450Z,15.84
2019-04-29T12:11:57.461Z,15.83
2019-04-29T12:14:41.422Z,15.73
2019-04-29T12:17:15.842Z,15.70
2019-04-29T12:19:48.975Z,15.60
2019-04-29T12:22:30.330Z,15.65
2019-04-29T12:24:54.207Z,15.60
2019-04-29T12:27:29.154Z,15.57
2019-04-29T12:30:01.735Z,15.52
2019-04-29T12:32:36.087Z,15.55
2019-04-29T12:35:16.713Z,15.43
2019-04-29T12:37:48.565Z,15.49
2019-04-29T12:40:39.171Z,15.47
2019-04-29T12:43:17.736Z,15.48
2019-04-29T12:45:57.214Z,15.38
2019-04-29T12:48:30.887Z,15.27
2019-04-29T12:51:03.832Z,15.22
2019-04-29T12:53:35.666Z,15.13
2019-04-29T12:56:11.461Z,14.87
2019-04-29T12:58:41.021Z,15.07
2019-04-29T13:01:50.254Z,15.04
2019-04-29T13:04:10.856Z,15.08
2019-04-29T13:06:48.161Z,15.27
2019-04-29T13:09:30.701Z,15.10
2019-04-29T13:12:17.677Z,15.37
2019-04-29T13:14:39.130Z,15.42
2019-04-29T13:17:14.743Z,15.60
2019-04-29T13:20:01.553Z,15.54
2019-04-29T13:22:27.068Z,15.50
2019-04-29T13:24:58.992Z,15.23
2019-04-29T13:27:30.553Z,15.45
2019-04-29T13:30:07.246Z,15.22
2019-04-29T13:32:37.309Z,15.05
2019-04-29T13:35:12.226Z,15.11
2019-04-29T13:37:43.358Z,15.79
2019-04-29T13:40:15.330Z,16.04
2019-04-29T13:42:50.988Z,16.00
2019-04-29T13:45:36.318Z,15.79
2019-04-29T13:48:18.255Z,15.41
2019-04-29T13:50:53.196Z,15.16
2019-04-29T13:53:25.023Z,14.47
2019-04-29T13:56:10.981Z,14.18
2019-04-29T13:58:36.598Z,14.25
2019-04-29T14:01:23.872Z,14.46
2019-04-29T14:03:51.408Z,13.83
2019-04-29T14:06:23.205Z,13.72
2019-04-29T14:08:54.769Z,13.48
2019-04-29T14:11:27.713Z,13.39
2019-04-29T14:13:59.396Z,13.45
2019-04-29T14:16:32.488Z,13.38
2019-04-29T14:19:04.157Z,13.11
2019-04-29T14:21:36.211Z,13.14
2019-04-29T14:24:08.785Z,12.97
2019-04-29T14:26:44.936Z,13.01
2019-04-29T14:29:15.744Z,12.85
2019-04-29T14:31:49.082Z,12.64
2019-04-29T14:34:22.433Z,12.58
2019-04-29T14:37:18.440Z,12.72
2019-04-29T14:39:37.415Z,12.78
2019-04-29T14:42:17.110Z,12.71
2019-04-29T14:44:50.487Z,12.55
2019-04-29T14:47:25.762Z,12.45
2019-04-29T14:50:02.059Z,12.50
2019-04-29T14:52:35.402Z,12.58
2019-04-29T14:55:08.052Z,12.55
2019-04-29T14:57:40.947Z,12.56
2019-04-29T15:00:19.763Z,12.42
2019-04-29T15:02:55.789Z,12.49
2019-04-29T15:05:25.570Z,12.50
2019-04-29T15:07:57.380Z,12.51
2019-04-29T15:10:31.132Z,12.42
2019-04-29T15:13:20.807Z,12.25
2019-04-29T15:16:04.362Z,12.20
2019-04-29T15:18:47.273Z,12.15
2019-04-29T15:21:32.335Z,12.16
2019-04-29T15:23:57.800Z,12.05
2019-04-29T15:26:30.885Z,12.23
2019-04-29T15:29:03.343Z,12.07
2019-04-29T15:31:35.205Z,12.03
2019-04-29T15:34:08.812Z,12.09
2019-04-29T15:36:42.038Z,12.11
2019-04-29T15:39:14.605Z,12.02
2019-04-29T15:41:46.657Z,11.95
2019-04-29T15:44:20.402Z,11.92
2019-04-29T15:46:52.103Z,11.82
2019-04-29T15:49:24.666Z,11.78
2019-04-29T15:51:57.400Z,11.64
2019-04-29T15:54:32.271Z,11.73
2019-04-29T15:57:09.127Z,11.72
2019-04-29T15:59:48.837Z,11.74
2019-04-29T16:02:14.586Z,11.70
2019-04-29T16:05:00.113Z,11.71
2019-04-29T16:07:51.530Z,11.63
2019-04-29T16:10:34.457Z,11.62
2019-04-29T16:13:10.786Z,11.56
2019-04-29T16:15:47.077Z,11.68
2019-04-29T16:18:19.903Z,11.61
2019-04-29T16:20:54.047Z,11.49
2019-04-29T16:23:25.196Z,11.49
2019-04-29T16:25:57.126Z,11.27
2019-04-29T16:28:31.371Z,11.32
2019-04-29T16:31:05.049Z,11.14
2019-04-29T16:33:36.835Z,11.14
2019-04-29T16:36:08.557Z,11.08
2019-04-29T16:38:40.402Z,11.07
2019-04-29T16:41:27.367Z,11.00
2019-04-29T16:44:01.201Z,11.00
2019-04-29T16:46:37.511Z,10.89
2019-04-29T16:49:07.614Z,10.92
2019-04-29T16:51:40.765Z,11.08
2019-04-29T16:54:19.411Z,10.94
2019-04-29T16:56:46.047Z,10.83
2019-04-29T16:59:18.002Z,10.83
2019-04-29T17:01:49.945Z,10.85
2019-04-29T17:04:21.976Z,10.89
2019-04-29T17:07:11.855Z,10.88
2019-04-29T17:09:31.722Z,10.82
2019-04-29T17:12:03.853Z,10.75
2019-04-29T17:15:02.440Z,10.84
2019-04-29T17:17:15.932Z,10.79
2019-04-29T17:19:48.277Z,10.70
2019-04-29T17:22:25.919Z,10.71
2019-04-29T17:24:53.839Z,10.68
2019-04-29T17:27:45.360Z,10.61
2019-04-29T17:30:38.322Z,10.63
2019-04-29T17:33:25.809Z,10.65
2019-04-29T17:35:51.306Z,10.62
2019-04-29T17:38:24.577Z,10.63
2019-04-29T17:40:56.486Z,10.62
2019-04-29T17:43:42.947Z,10.59
2019-04-29T17:46:30.980Z,10.61
2019-04-29T17:49:05.274Z,10.63
2019-04-29T17:51:38.567Z,10.57
2019-04-29T17:54:18.447Z,10.50
2019-04-29T17:57:08.611Z,10.51
2019-04-29T17:59:32.494Z,10.50
2019-04-29T18:02:08.982Z,10.56
2019-04-29T18:04:45.598Z,10.55
2019-04-29T18:07:25.245Z,10.59
2019-04-29T18:10:05.097Z,10.58
2019-04-29T18:12:40.923Z,10.44
2019-04-29T18:15:17.679Z,10.36
2019-04-29T18:17:49.293Z,10.24
2019-04-29T18:20:30.801Z,10.19
2019-04-29T18:23:19.124Z,10.18
2019-04-29T18:25:52.444Z,10.12
2019-04-29T18:28:25.950Z,10.09
2019-04-29T18:31:00.236Z,10.03
2019-04-29T18:33:32.670Z,10.05
2019-04-29T18:36:06.953Z,10.02
2019-04-29T18:38:42.441Z,10.00
2019-04-29T18:41:16.377Z,9.88
2019-04-29T18:43:46.625Z,9.80
2019-04-29T18:46:18.730Z,9.83
2019-04-29T18:48:50.340Z,9.84
2019-04-29T18:51:25.686Z,9.74
2019-04-29T18:53:55.608Z,9.75
2019-04-29T18:56:27.617Z,9.80
2019-04-29T18:59:00.921Z,9.71
2019-04-29T19:01:34.928Z,9.62
2019-04-29T19:04:25.469Z,9.61
2019-04-29T19:07:02.133Z,9.61
2019-04-29T19:09:35.758Z,9.59
2019-04-29T19:12:14.534Z,9.60
2019-04-29T19:14:59.745Z,9.62
2019-04-29T19:17:30.764Z,9.61
2019-04-29T19:20:01.449Z,9.58
2019-04-29T19:22:33.413Z,9.60
2019-04-29T19:25:08.688Z,9.54
2019-04-29T19:27:40.813Z,9.43
2019-04-29T19:30:20.682Z,9.47
2019-04-29T19:32:48.646Z,9.47
2019-04-29T19:35:29.510Z,9.46
2019-04-29T19:38:00.249Z,9.51
2019-04-29T19:40:41.199Z,9.49
2019-04-29T19:43:10.230Z,9.58
2019-04-29T19:45:44.739Z,9.51
2019-04-29T19:48:16.277Z,9.55
2019-04-29T19:50:59.642Z,9.54
2019-04-29T19:53:25.163Z,9.49
2019-04-29T19:56:04.154Z,9.43
2019-04-29T19:58:32.209Z,9.45
2019-04-29T20:01:11.629Z,9.51
2019-04-29T20:03:49.488Z,9.49
2019-04-29T20:06:25.759Z,9.45
2019-04-29T20:08:57.142Z,9.37
2019-04-29T20:11:32.736Z,9.38
2019-04-29T20:14:05.446Z,9.35
2019-04-29T20:16:59.399Z,9.41
2019-04-29T20:19:45.618Z,9.41
2019-04-29T20:22:16.905Z,9.44
2019-04-29T20:24:50.751Z,9.46
2019-04-29T20:27:26.146Z,9.59
2019-04-29T20:29:56.789Z,9.51
2019-04-29T20:32:31.863Z,9.47
2019-04-29T20:35:07.058Z,9.45
2019-04-29T20:37:36.444Z,9.40
2019-04-29T20:40:09.007Z,9.37
2019-04-29T20:42:45.242Z,9.42
2019-04-29T20:45:20.153Z,9.42
2019-04-29T20:47:52.687Z,9.38
2019-04-29T20:50:31.067Z,9.40
2019-04-29T20:53:05.773Z,9.49
2019-04-29T20:55:39.798Z,9.47
2019-04-29T20:58:15.680Z,9.46
2019-04-29T21:00:47.699Z,9.46
2019-04-29T21:03:27.836Z,9.53
2019-04-29T21:06:02.720Z,9.55
2019-04-29T21:08:31.322Z,9.53
2019-04-29T21:11:05.757Z,9.47
2019-04-29T21:13:42.207Z,9.46
2019-04-29T21:16:16.859Z,9.47
2019-04-29T21:18:58.910Z,9.46
2019-04-29T21:21:31.692Z,9.53
2019-04-29T21:24:12.920Z,9.55
2019-04-29T21:26:44.431Z,9.58
2019-04-29T21:29:19.357Z,9.61
2019-04-29T21:31:58.476Z,9.62
2019-04-29T21:34:29.670Z,9.59
2019-04-29T21:37:06.586Z,9.65
2019-04-29T21:39:39.110Z,9.62
2019-04-29T21:42:16.262Z,9.67
2019-04-29T21:44:48.781Z,9.61
2019-04-29T21:47:22.284Z,9.65
2019-04-29T21:49:56.270Z,9.66
2019-04-29T21:52:27.267Z,9.63
2019-04-29T21:54:58.974Z,9.61
2019-04-29T21:57:30.791Z,9.58
2019-04-29T22:00:03.420Z,9.58
2019-04-29T22:02:36.738Z,9.62
2019-04-29T22:05:13.744Z,9.58
2019-04-29T22:07:44.691Z,9.56
2019-04-29T22:10:22.703Z,9.60
2019-04-29T22:12:50.963Z,9.61
2019-04-29T22:15:30.700Z,9.53
2019-04-29T22:18:01.311Z,9.52
2019-04-29T22:20:37.363Z,9.55
2019-04-29T22:23:08.351Z,9.59
2019-04-29T22:25:41.071Z,9.59
2019-04-29T22:28:16.075Z,9.65
2019-04-29T22:30:49.819Z,9.69
2019-04-29T22:33:20.068Z,9.69
2019-04-29T22:35:52.230Z,9.66
2019-04-29T22:38:25.007Z,9.67
2019-04-29T22:40:58.619Z,9.69
2019-04-29T22:43:50.188Z,9.68
2019-04-29T22:46:21.907Z,9.71
2019-04-29T22:48:53.759Z,9.76
2019-04-29T22:51:27.193Z,9.89
2019-04-29T22:53:58.919Z,9.84
2019-04-29T22:56:30.941Z,9.94
2019-04-29T22:59:02.935Z,10.01
2019-04-29T23:01:36.362Z,9.90
2019-04-29T23:04:09.608Z,9.85
2019-04-29T23:06:46.597Z,9.90
2019-04-29T23:09:15.371Z,9.91
2019-04-29T23:11:47.554Z,9.93
2019-04-29T23:14:19.321Z,9.97
2019-04-29T23:16:52.867Z,9.99
2019-04-29T23:19:26.054Z,9.96
2019-04-29T23:22:16.973Z,9.96
2019-04-29T23:24:59.143Z,9.97
2019-04-29T23:27:30.969Z,10.03
2019-04-29T23:30:02.867Z,10.00
2019-04-29T23:32:39.545Z,10.00
2019-04-29T23:35:10.034Z,10.00
2019-04-29T23:37:41.939Z,9.95
2019-04-29T23:40:14.069Z,9.98
2019-04-29T23:42:47.985Z,10.00
2019-04-29T23:45:21.303Z,9.98
2019-04-29T23:47:55.409Z,10.00
2019-04-29T23:50:28.137Z,10.06
2019-04-29T23:52:59.673Z,10.04
2019-04-29T23:55:31.375Z,10.00
2019-04-29T23:58:07.793Z,10.00
